Terminal Aerodrome Forecast
Issued by NWS

Current Version | Previous Version | Text Only | Print | Product List | Glossary On
Versions: 1 2 3 4 5 6 7 8 9 10 11 12 13 14 15 16 17 18 19 20 21 22 23 24 25 26 27 28 29 30 31
000
FTUS46 KMTR 210300 AAA
TAFSFO
TAF AMD
KSFO 210301Z 2103/2206 14005KT P6SM SCT027 BKN070 OVC090
     FM210500 24005KT P6SM SCT030 BKN050
     FM211300 VRB04KT P6SM BKN015 BKN050
     FM211600 03004KT P6SM BKN050 OVC100
     FM212000 30006KT P6SM BKN120
     FM212300 25007KT P6SM SCT120=

USA.gov is the U.S. government's official web portal to all federal, state and local government web resources and services.